Time;durP1;ratioP1;P1;durP2;ratioP2;P2;SDS_P1;SDS_P2;PMS_P1;PMS_P2;Temp;Humidity;BMP_temperature;BMP_pressure;BME280_temperature;BME280_humidity;BME280_pressure;Samples;Min_cycle;Max_cycle;Signal;HPM_P1;HPM_P2
2021/10/25 00:00:52;;;;;;;53.98;22.35;;;;;;;0.75;73.17;101282.23;2216110;78;21020;-70
2021/10/25 00:03:54;;;;;;;51.50;22.87;;;;;;;0.75;73.58;101280.09;2210736;78;20986;-72
2021/10/25 00:06:55;;;;;;;53.63;22.37;;;;;;;0.72;73.73;101275.86;2211487;78;21471;-69
2021/10/25 00:09:57;;;;;;;56.18;23.75;;;;;;;0.72;74.05;101271.95;2207971;78;21548;-71
2021/10/25 00:12:59;;;;;;;55.78;23.42;;;;;;;0.75;74.21;101276.17;2212544;78;21068;-75
2021/10/25 00:16:01;;;;;;;66.37;29.63;;;;;;;0.80;74.13;101268.50;2211787;78;21002;-69
2021/10/25 00:19:04;;;;;;;59.20;27.07;;;;;;;0.81;74.19;101264.95;2211445;78;21051;-70
2021/10/25 00:22:06;;;;;;;58.63;27.62;;;;;;;0.88;74.02;101266.35;2212415;78;21081;-69
2021/10/25 00:25:09;;;;;;;57.00;27.25;;;;;;;0.93;74.20;101267.44;2214215;78;21736;-69
2021/10/25 00:28:10;;;;;;;56.40;24.07;;;;;;;0.97;74.13;101269.43;2210111;79;21028;-69
2021/10/25 00:31:12;;;;;;;55.48;23.30;;;;;;;0.98;74.21;101263.27;2212569;78;21057;-70
2021/10/25 00:34:14;;;;;;;56.98;24.70;;;;;;;0.96;74.29;101265.98;2210364;78;21088;-69
2021/10/25 00:37:16;;;;;;;58.42;25.60;;;;;;;0.98;74.01;101258.04;2210530;78;21013;-69
2021/10/25 00:40:17;;;;;;;61.70;28.52;;;;;;;0.97;74.25;101261.59;2219168;78;21020;-70
2021/10/25 00:43:19;;;;;;;59.10;25.68;;;;;;;0.96;74.03;101256.83;2217733;78;21076;-69
2021/10/25 00:46:20;;;;;;;55.25;25.80;;;;;;;0.99;74.22;101250.14;2213379;78;21583;-72
2021/10/25 00:49:22;;;;;;;48.58;23.62;;;;;;;1.01;73.98;101242.20;2212092;78;21033;-72
2021/10/25 00:52:24;;;;;;;52.13;23.55;;;;;;;0.97;74.21;101240.21;2221395;78;20992;-69
2021/10/25 00:55:26;;;;;;;51.58;23.02;;;;;;;0.94;74.22;101238.22;2216647;78;21571;-70
2021/10/25 00:58:28;;;;;;;50.63;22.25;;;;;;;0.89;74.30;101239.28;2241567;77;21518;-69
2021/10/25 01:01:30;;;;;;;47.27;22.58;;;;;;;0.89;74.13;101234.05;2215428;78;21015;-70
2021/10/25 01:04:31;;;;;;;68.33;31.23;;;;;;;0.94;74.42;101238.22;2219031;78;21089;-69
2021/10/25 01:07:35;;;;;;;59.77;26.45;;;;;;;0.99;74.65;101240.15;2215224;78;20977;-69
2021/10/25 01:10:37;;;;;;;55.05;25.40;;;;;;;1.03;74.76;101235.14;2213391;78;21564;-70
2021/10/25 01:13:40;;;;;;;56.23;22.75;;;;;;;1.04;74.82;101238.98;2222324;78;21016;-70
2021/10/25 01:16:42;;;;;;;47.08;21.30;;;;;;;1.04;74.77;101225.92;2211973;78;21139;-70
2021/10/25 01:19:44;;;;;;;48.65;20.15;;;;;;;1.06;74.72;101229.75;2212421;78;21087;-70
2021/10/25 01:22:45;;;;;;;45.05;20.43;;;;;;;1.04;74.91;101222.44;2222742;78;21028;-70
2021/10/25 01:25:47;;;;;;;49.83;21.35;;;;;;;1.05;74.94;101216.30;2212654;78;21127;-69
2021/10/25 01:28:52;;;;;;;44.18;20.57;;;;;;;1.09;75.01;101217.83;2213768;78;21568;-71
2021/10/25 01:31:54;;;;;;;52.13;21.57;;;;;;;1.10;74.93;101213.00;2238298;78;21493;-72
2021/10/25 01:34:57;;;;;;;45.55;20.72;;;;;;;1.09;75.28;101209.98;2206385;78;21084;-70
2021/10/25 01:38:00;;;;;;;46.85;20.25;;;;;;;1.09;74.98;101198.22;2204198;78;21548;-76
2021/10/25 01:41:02;;;;;;;42.05;19.10;;;;;;;1.08;75.05;101194.77;2237361;77;20979;-70
2021/10/25 01:44:11;;;;;;;37.38;17.95;;;;;;;1.07;75.07;101193.52;2207740;78;21605;-71
2021/10/25 01:47:12;;;;;;;40.98;18.37;;;;;;;1.09;74.94;101196.91;2235153;78;21415;-69
2021/10/25 01:50:14;;;;;;;41.20;19.57;;;;;;;1.12;74.74;101194.97;2237919;78;21012;-72
2021/10/25 01:53:16;;;;;;;43.55;18.17;;;;;;;1.11;74.62;101195.07;2239147;78;21072;-70
2021/10/25 01:56:20;;;;;;;46.77;20.02;;;;;;;1.14;74.43;101187.53;2217523;79;21445;-72
2021/10/25 01:59:21;;;;;;;44.63;20.27;;;;;;;1.12;74.50;101186.30;2210521;79;21096;-73
2021/10/25 02:02:23;;;;;;;36.48;19.20;;;;;;;1.01;74.55;101184.70;2239618;78;20957;-71
2021/10/25 02:05:26;;;;;;;37.42;18.73;;;;;;;0.93;74.59;101177.28;2235744;78;21084;-71
2021/10/25 02:08:28;;;;;;;39.63;18.87;;;;;;;0.86;74.63;101168.05;2240304;78;21002;-70
2021/10/25 02:11:36;;;;;;;42.67;18.77;;;;;;;0.79;74.52;101171.45;2235005;78;20992;-71
2021/10/25 02:14:40;;;;;;;35.33;16.87;;;;;;;0.71;74.63;101163.16;2235360;78;21028;-71
2021/10/25 02:17:41;;;;;;;41.18;16.60;;;;;;;0.69;74.78;101155.84;2233611;78;20963;-71
2021/10/25 02:20:44;;;;;;;39.67;18.12;;;;;;;0.61;74.79;101143.16;2210553;78;20982;-70
2021/10/25 02:23:47;;;;;;;36.23;17.70;;;;;;;0.59;75.03;101137.20;2236232;78;21668;-74
2021/10/25 02:26:49;;;;;;;33.38;16.45;;;;;;;0.58;75.13;101140.71;2256745;78;21006;-72
2021/10/25 02:29:50;;;;;;;35.17;15.95;;;;;;;0.59;74.65;101154.61;2217207;78;21074;-70
2021/10/25 02:32:59;;;;;;;40.00;16.45;;;;;;;0.56;74.17;101143.02;2257779;77;21032;-73
2021/10/25 02:36:05;;;;;;;36.63;16.42;;;;;;;0.53;74.02;101144.02;2252137;78;20946;-73
2021/10/25 02:39:07;;;;;;;35.83;18.00;;;;;;;0.54;73.99;101138.35;2259515;78;21123;-77
2021/10/25 02:42:11;;;;;;;38.98;16.37;;;;;;;0.43;74.27;101132.36;2248397;77;21112;-71
2021/10/25 02:45:13;;;;;;;34.70;16.65;;;;;;;0.23;74.51;101134.66;2255938;77;21102;-72
2021/10/25 02:48:14;;;;;;;34.25;17.57;;;;;;;0.14;74.72;101141.17;2259115;78;20977;-71
2021/10/25 02:51:16;;;;;;;35.52;17.15;;;;;;;0.09;74.77;101139.72;2252239;78;21036;-75
2021/10/25 02:54:18;;;;;;;36.65;17.23;;;;;;;0.10;74.83;101144.00;2250722;77;21049;-73
2021/10/25 02:57:21;;;;;;;36.50;17.00;;;;;;;0.11;74.38;101145.68;2255154;77;21075;-71
2021/10/25 03:00:23;;;;;;;40.85;17.32;;;;;;;0.11;74.34;101141.30;2254085;77;21067;-75
2021/10/25 03:03:25;;;;;;;34.35;16.52;;;;;;;0.14;74.56;101132.48;2251829;77;21070;-71
2021/10/25 03:06:26;;;;;;;36.73;16.17;;;;;;;0.10;74.29;101134.41;2253935;77;20989;-71
2021/10/25 03:09:29;;;;;;;35.60;18.00;;;;;;;0.01;74.23;101137.47;2258066;77;21298;-70
2021/10/25 03:12:30;;;;;;;39.67;18.30;;;;;;;-0.06;74.31;101136.93;2252958;77;21039;-74
2021/10/25 03:15:35;;;;;;;34.88;17.10;;;;;;;-0.16;74.54;101120.02;2252466;77;21107;-71
2021/10/25 03:18:38;;;;;;;34.95;15.43;;;;;;;-0.24;74.57;101116.92;2247645;77;21542;-71
2021/10/25 03:21:40;;;;;;;34.70;14.45;;;;;;;-0.30;75.00;101111.54;2250086;77;21725;-70
2021/10/25 03:24:44;;;;;;;28.45;13.38;;;;;;;-0.28;75.36;101117.53;2250021;77;21056;-70
2021/10/25 03:27:47;;;;;;;34.48;14.25;;;;;;;-0.22;75.33;101119.01;2257634;78;22336;-70
2021/10/25 03:30:49;;;;;;;29.57;14.93;;;;;;;-0.15;75.27;101117.78;2251274;78;20945;-71
2021/10/25 03:33:51;;;;;;;30.65;14.33;;;;;;;-0.06;75.25;101121.27;2253167;77;21582;-71
2021/10/25 03:36:57;;;;;;;29.90;13.70;;;;;;;0.02;75.13;101111.74;2251065;78;21072;-70
2021/10/25 03:40:01;;;;;;;37.30;16.40;;;;;;;0.05;75.32;101111.59;2254825;78;20978;-71
2021/10/25 03:43:03;;;;;;;35.13;14.15;;;;;;;0.04;75.25;101110.38;2263880;78;21126;-71
2021/10/25 03:46:11;;;;;;;29.92;14.18;;;;;;;-0.01;75.22;101111.90;2256350;78;20997;-70
2021/10/25 03:49:18;;;;;;;32.40;14.87;;;;;;;-0.08;75.24;101098.78;2255013;78;21083;-70
2021/10/25 03:52:27;;;;;;;34.05;15.05;;;;;;;-0.12;75.38;101093.31;2255199;78;21601;-70
2021/10/25 04:25:34;;;;;;;29.70;13.80;;;;;;;-0.52;76.28;101060.86;2251654;78;21586;-70
2021/10/25 04:28:21;;;;;;;28.55;14.05;;;;;;;-0.52;76.28;101064.77;2225275;78;21056;-69
2021/10/25 04:31:21;;;;;;;28.57;12.68;;;;;;;-0.52;76.53;101053.03;2241452;78;20950;-74
2021/10/25 04:34:25;;;;;;;31.45;13.22;;;;;;;-0.50;76.44;101058.19;2257689;78;21035;-71
2021/10/25 04:37:27;;;;;;;25.80;11.95;;;;;;;-0.49;76.42;101058.10;2263913;78;21072;-72
2021/10/25 04:40:42;;;;;;;30.00;13.30;;;;;;;-0.47;76.20;101060.66;2262922;78;21048;-72
2021/10/25 04:43:45;;;;;;;24.50;13.03;;;;;;;-0.40;75.90;101057.28;2253798;78;21020;-72
2021/10/25 04:46:46;;;;;;;27.87;14.23;;;;;;;-0.40;75.86;101051.59;2256747;77;21435;-75
2021/10/25 04:49:48;;;;;;;27.60;11.90;;;;;;;-0.39;76.04;101053.31;2255524;78;21511;-77
2021/10/25 04:53:08;;;;;;;25.00;11.85;;;;;;;-0.44;75.84;101047.93;2236708;78;21011;-77
2021/10/25 04:56:11;;;;;;;23.55;11.50;;;;;;;-0.44;76.04;101050.53;2238063;78;21488;-75
2021/10/25 04:59:12;;;;;;;22.40;12.30;;;;;;;-0.49;75.32;101043.77;2259013;78;22179;-76
2021/10/25 05:02:14;;;;;;;27.05;12.93;;;;;;;-0.52;75.14;101053.50;2230488;78;21008;-74
2021/10/25 05:05:17;;;;;;;26.55;11.95;;;;;;;-0.56;75.12;101046.30;2257538;78;21040;-75
2021/10/25 05:08:22;;;;;;;27.97;13.77;;;;;;;-0.56;74.96;101047.59;2246069;77;21047;-74
2021/10/25 05:11:24;;;;;;;29.95;13.53;;;;;;;-0.63;75.05;101038.83;2232195;78;20995;-74
2021/10/25 05:14:26;;;;;;;31.15;14.98;;;;;;;-0.65;74.74;101044.56;2253807;77;20954;-76
2021/10/25 05:17:29;;;;;;;31.07;12.63;;;;;;;-0.69;74.95;101038.66;2214656;79;21039;-76
2021/10/25 05:20:32;;;;;;;28.42;13.08;;;;;;;-0.67;74.96;101046.42;2256056;78;21083;-75
2021/10/25 05:23:34;;;;;;;27.93;13.45;;;;;;;-0.74;74.62;101048.45;2263082;77;21551;-76
2021/10/25 05:26:37;;;;;;;25.70;12.58;;;;;;;-0.80;74.67;101051.34;2250038;77;21103;-74
2021/10/25 05:29:41;;;;;;;28.25;13.20;;;;;;;-0.92;74.45;101051.00;2254406;77;21495;-77
2021/10/25 05:32:46;;;;;;;26.95;12.35;;;;;;;-0.97;74.39;101050.82;2255391;77;21032;-74
2021/10/25 05:35:48;;;;;;;24.85;12.85;;;;;;;-1.03;74.30;101055.85;2255487;77;21008;-75
2021/10/25 05:38:51;;;;;;;26.55;12.47;;;;;;;-1.07;74.39;101050.41;2256448;78;20985;-75
2021/10/25 05:41:52;;;;;;;27.65;13.48;;;;;;;-1.04;74.54;101050.27;2256271;77;20982;-75
2021/10/25 05:44:54;;;;;;;38.15;17.30;;;;;;;-1.04;74.19;101057.20;2255865;78;20984;-75
2021/10/25 05:47:57;;;;;;;30.80;14.65;;;;;;;-1.16;74.64;101053.41;2256780;77;21011;-73
2021/10/25 05:51:00;;;;;;;28.00;13.60;;;;;;;-1.20;74.84;101054.01;2258489;78;21028;-73
2021/10/25 05:54:05;;;;;;;24.70;12.07;;;;;;;-1.19;74.96;101050.48;2253829;78;20969;-73
2021/10/25 05:57:06;;;;;;;24.82;13.10;;;;;;;-1.19;74.87;101045.73;2254692;77;21028;-72
2021/10/25 06:00:13;;;;;;;31.62;13.08;;;;;;;-1.22;75.10;101047.17;2254760;78;21486;-70
2021/10/25 06:03:23;;;;;;;24.45;13.32;;;;;;;-1.08;75.44;101041.34;2257604;78;21677;-71
2021/10/25 06:06:22;;;;;;;24.63;11.50;;;;;;;-0.65;75.87;101048.00;2262799;78;21551;-72
2021/10/25 06:09:24;;;;;;;27.80;13.58;;;;;;;-0.11;75.78;101044.98;2260508;78;20996;-73
2021/10/25 06:12:27;;;;;;;28.05;14.35;;;;;;;0.48;75.97;101042.89;2256970;78;21051;-74
2021/10/25 06:15:42;;;;;;;29.42;14.83;;;;;;;1.03;75.51;101031.27;2208483;78;21074;-72
2021/10/25 06:18:45;;;;;;;28.35;15.80;;;;;;;1.55;75.17;101043.61;2252212;78;21021;-71
2021/10/25 06:21:47;;;;;;;29.35;15.60;;;;;;;2.09;75.06;101034.47;2255925;77;21642;-77
2021/10/25 06:24:50;;;;;;;36.58;18.48;;;;;;;2.63;74.83;101036.02;2254280;78;21048;-75
2021/10/25 06:27:52;;;;;;;34.53;17.57;;;;;;;3.29;74.53;101035.38;2256728;77;21523;-73
2021/10/25 06:31:02;;;;;;;28.47;15.30;;;;;;;3.73;73.43;101036.92;2231432;78;21084;-72
2021/10/25 06:34:09;;;;;;;25.45;12.47;;;;;;;4.19;73.00;101025.98;2223952;78;20986;-73
2021/10/25 06:37:34;;;;;;;24.25;11.63;;;;;;;4.69;72.58;101023.47;2255299;78;21594;-73
2021/10/25 06:40:32;;;;;;;21.05;10.23;;;;;;;5.13;71.89;101022.14;2255070;78;21060;-72
2021/10/25 06:43:35;;;;;;;17.17;9.00;;;;;;;5.58;71.60;101019.28;2255716;77;21055;-72
2021/10/25 06:46:42;;;;;;;15.20;7.37;;;;;;;6.02;70.92;101019.59;2258603;78;21009;-74
2021/10/25 06:49:42;;;;;;;11.95;6.55;;;;;;;6.38;69.79;101016.44;2258879;78;21535;-73
2021/10/25 06:52:44;;;;;;;19.65;7.50;;;;;;;6.63;69.12;101020.66;2260362;78;21032;-73
2021/10/25 06:55:47;;;;;;;15.28;6.70;;;;;;;6.80;69.27;101013.58;2255360;78;20958;-73
2021/10/25 06:58:49;;;;;;;14.87;6.65;;;;;;;7.13;69.10;101018.48;2257368;77;21623;-72
2021/10/25 07:01:52;;;;;;;14.23;6.37;;;;;;;7.41;68.42;101021.90;2256263;77;21052;-73
2021/10/25 07:04:55;;;;;;;13.78;5.40;;;;;;;7.50;67.48;101022.95;2262851;78;21593;-74
2021/10/25 07:07:57;;;;;;;13.55;6.10;;;;;;;7.49;67.16;101013.81;2252567;78;21075;-74
2021/10/25 07:10:59;;;;;;;13.08;6.00;;;;;;;7.34;66.54;101015.42;2257799;78;21028;-73
2021/10/25 07:14:01;;;;;;;10.70;5.83;;;;;;;7.22;66.02;101011.14;2259445;78;21587;-72
2021/10/25 07:20:26;;;;;;;9.68;5.42;;;;;;;6.82;66.21;101002.92;2256543;77;21024;-74
2021/10/25 08:00:12;;;;;;;9.63;4.60;;;;;;;9.30;61.89;100986.02;2248619;78;21083;-74
2021/10/25 08:03:23;;;;;;;9.38;4.45;;;;;;;9.35;61.06;100985.63;2243252;78;21053;-74
2021/10/25 08:12:29;;;;;;;11.65;4.87;;;;;;;9.89;60.36;100986.88;2252055;78;21554;-73
2021/10/25 08:15:37;;;;;;;11.63;4.15;;;;;;;10.14;58.51;100980.64;2254649;78;20969;-72
2021/10/25 08:18:54;;;;;;;13.55;4.78;;;;;;;10.15;56.80;100979.16;2247394;78;21013;-72
2021/10/25 08:21:43;;;;;;;9.88;4.42;;;;;;;10.19;58.74;100981.02;2244367;78;21040;-72
2021/10/25 08:24:52;;;;;;;9.95;4.20;;;;;;;10.34;55.54;100976.15;2246423;78;21492;-72
2021/10/25 08:27:57;;;;;;;7.92;4.42;;;;;;;10.42;56.28;100969.63;2249638;78;21064;-73
2021/10/25 08:30:59;;;;;;;9.65;4.78;;;;;;;10.46;55.88;100980.29;2226427;78;21045;-72
2021/10/25 08:40:31;;;;;;;10.15;5.58;;;;;;;10.95;55.23;100970.27;2252088;78;20994;-72
2021/10/25 08:43:38;;;;;;;9.18;4.50;;;;;;;11.10;55.21;100972.79;2228850;77;21017;-74
2021/10/25 08:46:50;;;;;;;11.20;4.50;;;;;;;11.31;55.05;100971.17;2255984;77;20992;-74
2021/10/25 08:49:48;;;;;;;11.45;3.83;;;;;;;11.50;52.89;100962.72;2250821;78;21001;-75
2021/10/25 08:52:54;;;;;;;12.30;4.22;;;;;;;11.54;52.86;100959.59;2256943;78;21076;-73
2021/10/25 08:56:00;;;;;;;12.43;3.77;;;;;;;11.74;53.62;100960.29;2252635;78;21111;-70
2021/10/25 08:59:03;;;;;;;6.00;3.80;;;;;;;12.04;53.83;100959.02;2250734;78;21035;-71
2021/10/25 09:02:08;;;;;;;10.08;5.15;;;;;;;12.30;53.37;100958.19;2257387;78;21048;-73
2021/10/25 09:05:20;;;;;;;6.53;3.85;;;;;;;12.52;52.01;100960.81;2244222;78;21432;-71
2021/10/25 09:08:22;;;;;;;10.13;4.55;;;;;;;12.71;51.27;100954.41;2258017;78;21075;-77
2021/10/25 09:11:24;;;;;;;10.20;3.70;;;;;;;12.97;51.92;100959.16;2251138;78;21079;-71
2021/10/25 09:14:35;;;;;;;9.98;3.92;;;;;;;13.17;50.42;100958.38;2235374;78;21041;-71
2021/10/25 09:17:42;;;;;;;9.00;4.08;;;;;;;13.34;50.09;100954.44;2250242;78;21559;-72
2021/10/25 09:21:00;;;;;;;7.60;3.15;;;;;;;13.48;49.29;100959.13;2253974;78;21603;-78
2021/10/25 09:24:04;;;;;;;5.97;3.30;;;;;;;13.73;50.72;100957.30;2258455;78;22258;-72
2021/10/25 09:27:09;;;;;;;8.50;3.20;;;;;;;14.02;48.52;100953.28;2252319;78;21492;-72
2021/10/25 09:30:24;;;;;;;8.00;3.15;;;;;;;14.18;47.26;100951.09;2248420;77;21476;-72
2021/10/25 09:33:35;;;;;;;8.45;3.50;;;;;;;14.14;48.63;100949.27;2250742;78;21021;-72
2021/10/25 09:36:38;;;;;;;11.18;4.90;;;;;;;14.27;49.10;100948.73;2248304;78;21571;-79
2021/10/25 09:39:48;;;;;;;6.40;3.72;;;;;;;14.02;43.73;100947.47;2250184;77;21535;-72
2021/10/25 09:46:32;;;;;;;9.33;3.77;;;;;;;13.96;45.62;100944.63;2249485;78;21057;-72
2021/10/25 09:49:17;;;;;;;10.32;4.17;;;;;;;14.06;47.03;100949.28;2243305;78;21593;-73
2021/10/25 09:52:34;;;;;;;9.63;3.50;;;;;;;14.17;44.67;100945.44;2248581;78;21041;-76
2021/10/25 09:55:45;;;;;;;7.67;3.85;;;;;;;14.09;44.97;100949.77;2252607;78;21319;-73
2021/10/25 09:59:07;;;;;;;11.68;5.25;;;;;;;14.12;45.85;100944.09;2249671;78;21436;-73
2021/10/25 10:02:00;;;;;;;9.48;4.05;;;;;;;14.23;44.39;100938.91;2247974;78;20978;-72
2021/10/25 10:05:05;;;;;;;10.70;4.70;;;;;;;14.28;43.45;100941.90;2248197;78;21130;-72
2021/10/25 10:08:11;;;;;;;10.40;3.47;;;;;;;14.24;44.90;100931.22;2249197;78;21090;-73
2021/10/25 10:11:13;;;;;;;7.25;3.83;;;;;;;14.37;42.59;100929.36;2248604;78;21027;-74
2021/10/25 10:14:15;;;;;;;7.50;3.45;;;;;;;14.07;41.20;100923.75;2254790;78;20964;-72
2021/10/25 10:17:44;;;;;;;7.28;3.50;;;;;;;13.83;42.94;100929.97;2251512;78;21041;-72
2021/10/25 10:20:50;;;;;;;6.33;3.40;;;;;;;13.87;43.37;100927.28;2246343;78;21112;-72
2021/10/25 10:24:09;;;;;;;6.40;3.55;;;;;;;13.90;42.04;100921.61;2250449;78;21037;-72
2021/10/25 10:27:07;;;;;;;7.92;2.95;;;;;;;14.00;41.85;100920.11;2237043;78;20986;-72
2021/10/25 10:30:10;;;;;;;4.65;2.92;;;;;;;13.98;41.10;100905.27;2178395;79;21001;-72
2021/10/25 10:33:14;;;;;;;5.17;3.22;;;;;;;13.89;41.47;100911.95;2208067;79;21104;-72
2021/10/25 10:36:34;;;;;;;6.40;2.77;;;;;;;14.03;42.90;100911.77;2208734;79;21500;-72
2021/10/25 10:39:39;;;;;;;4.35;2.77;;;;;;;14.27;41.46;100913.52;2206554;79;21641;-72
2021/10/25 10:42:52;;;;;;;5.25;2.90;;;;;;;14.25;39.20;100902.72;2206547;79;21085;-71
2021/10/25 10:46:02;;;;;;;7.47;2.95;;;;;;;14.10;38.02;100890.05;2204471;79;22248;-72
2021/10/25 10:49:03;;;;;;;6.40;3.77;;;;;;;14.07;40.27;100887.72;2177805;79;20947;-73
2021/10/25 10:52:24;;;;;;;6.90;3.87;;;;;;;14.33;41.13;100895.51;2214051;79;20993;-74
2021/10/25 10:55:25;;;;;;;8.30;3.50;;;;;;;14.43;39.19;100891.80;2202479;79;21044;-73
2021/10/25 10:59:31;;;;;;;7.30;2.75;;;;;;;14.32;39.20;100885.81;2205329;79;21063;-72
2021/10/25 11:01:55;;;;;;;11.85;5.22;;;;;;;14.22;39.34;100877.20;2186718;79;20989;-72
2021/10/25 11:05:09;;;;;;;9.73;3.00;;;;;;;14.05;38.47;100876.89;2211199;79;21510;-76
2021/10/25 11:08:24;;;;;;;7.05;4.10;;;;;;;14.06;39.46;100875.39;2213606;79;20984;-74
2021/10/25 11:11:25;;;;;;;5.22;3.10;;;;;;;14.19;37.94;100870.87;2211707;79;21064;-75
2021/10/25 11:14:29;;;;;;;6.33;3.40;;;;;;;14.08;38.68;100864.06;2204676;79;21041;-71
2021/10/25 11:17:31;;;;;;;5.92;2.90;;;;;;;14.09;38.52;100866.22;2210872;79;21558;-71
2021/10/25 11:20:35;;;;;;;7.65;3.50;;;;;;;14.01;37.55;100863.57;2201567;79;21002;-71
2021/10/25 11:23:44;;;;;;;6.12;3.33;;;;;;;13.93;38.37;100851.59;2210605;79;21001;-71
2021/10/25 11:26:56;;;;;;;7.87;3.77;;;;;;;13.98;38.75;100862.58;2206766;78;21034;-72
2021/10/25 11:30:12;;;;;;;7.22;3.45;;;;;;;14.02;39.21;100864.75;2231568;78;20993;-72
2021/10/25 11:33:17;;;;;;;7.95;3.35;;;;;;;14.07;38.41;100861.55;2226745;78;20950;-72
2021/10/25 11:36:22;;;;;;;6.20;3.37;;;;;;;14.12;39.33;100865.88;2230518;78;21083;-73
2021/10/25 11:39:55;;;;;;;5.22;3.12;;;;;;;14.16;38.17;100851.17;2219550;78;21008;-72
2021/10/25 11:43:03;;;;;;;6.87;3.27;;;;;;;14.21;39.97;100850.16;2224637;78;21075;-71
2021/10/25 11:46:18;;;;;;;8.08;3.40;;;;;;;14.33;39.53;100843.45;2221795;78;20985;-72
2021/10/25 11:49:24;;;;;;;6.95;3.45;;;;;;;14.42;39.44;100832.73;2224858;78;20985;-72
2021/10/25 11:52:39;;;;;;;9.28;3.10;;;;;;;14.34;39.42;100826.92;2221454;78;21085;-73
2021/10/25 11:55:42;;;;;;;7.45;3.37;;;;;;;14.35;39.24;100834.75;2218051;78;21040;-76
2021/10/25 11:58:43;;;;;;;5.45;2.77;;;;;;;14.40;39.67;100826.73;2228182;78;21021;-73
2021/10/25 12:01:47;;;;;;;7.03;3.37;;;;;;;14.44;39.18;100822.69;2232631;78;20963;-73
2021/10/25 12:04:48;;;;;;;6.47;3.52;;;;;;;14.43;39.85;100817.03;2229556;78;21514;-73
2021/10/25 12:07:54;;;;;;;7.90;3.87;;;;;;;14.47;40.18;100819.67;2225774;78;21540;-75
2021/10/25 12:10:56;;;;;;;5.65;2.92;;;;;;;14.49;39.93;100818.49;2223807;78;21017;-74
2021/10/25 12:14:02;;;;;;;6.20;3.20;;;;;;;14.48;38.91;100820.02;2229245;78;21346;-76
2021/10/25 12:17:07;;;;;;;8.88;3.45;;;;;;;14.42;39.62;100806.05;2217074;78;21024;-77
2021/10/25 12:20:13;;;;;;;9.28;3.52;;;;;;;14.32;38.70;100811.07;2227739;78;21005;-73
2021/10/25 12:23:19;;;;;;;8.10;3.70;;;;;;;14.22;39.32;100809.61;2232526;78;21084;-74
2021/10/25 12:26:22;;;;;;;5.92;3.27;;;;;;;14.16;38.62;100799.13;2202968;79;22319;-74
2021/10/25 12:29:23;;;;;;;6.85;3.90;;;;;;;14.10;39.41;100801.16;2220006;78;20966;-74
2021/10/25 12:32:25;;;;;;;8.63;3.25;;;;;;;14.07;39.34;100804.17;2224957;78;21072;-73
2021/10/25 12:35:37;;;;;;;10.32;3.70;;;;;;;14.00;39.50;100796.05;2215904;79;21104;-73
2021/10/25 12:38:43;;;;;;;7.25;3.17;;;;;;;13.97;39.70;100791.05;2220207;78;21051;-75
2021/10/25 12:41:57;;;;;;;5.30;3.25;;;;;;;13.96;39.09;100792.04;2226465;79;21013;-73
2021/10/25 12:44:59;;;;;;;6.53;3.10;;;;;;;13.95;39.68;100789.56;2223281;78;21657;-72
2021/10/25 12:48:03;;;;;;;10.30;3.70;;;;;;;13.95;39.68;100786.89;2225406;79;20964;-72
2021/10/25 12:51:07;;;;;;;5.12;3.83;;;;;;;13.95;39.53;100785.56;2221663;78;21030;-73
2021/10/25 12:54:11;;;;;;;8.43;3.62;;;;;;;13.97;39.63;100779.05;2220130;78;21644;-74
2021/10/25 12:57:26;;;;;;;10.90;3.50;;;;;;;13.98;39.42;100774.03;2198360;79;21452;-73
2021/10/25 13:00:29;;;;;;;6.28;3.40;;;;;;;13.90;38.60;100764.22;2221152;78;21109;-73
2021/10/25 13:03:30;;;;;;;10.95;3.60;;;;;;;13.82;39.20;100761.58;2218128;78;21064;-74
2021/10/25 13:06:34;;;;;;;7.87;4.15;;;;;;;13.77;38.95;100755.95;2225124;78;21059;-74
2021/10/25 13:09:48;;;;;;;7.25;3.55;;;;;;;13.74;39.52;100752.77;2220488;79;21551;-76
2021/10/25 13:12:51;;;;;;;6.70;3.40;;;;;;;13.73;39.62;100751.12;2221959;78;22159;-73
2021/10/25 13:15:52;;;;;;;7.17;3.05;;;;;;;13.71;39.62;100754.45;2221894;79;21052;-72
2021/10/25 13:18:54;;;;;;;6.65;3.25;;;;;;;13.72;39.95;100740.96;2221146;79;21408;-73
2021/10/25 13:21:56;;;;;;;4.20;3.12;;;;;;;13.73;39.91;100741.28;2225575;79;20970;-76
2021/10/25 13:24:58;;;;;;;4.25;3.00;;;;;;;13.73;39.87;100739.12;2225886;78;21563;-74
2021/10/25 13:28:02;;;;;;;8.93;3.80;;;;;;;13.70;40.21;100740.80;2214088;78;21083;-78
2021/10/25 13:31:04;;;;;;;7.50;3.70;;;;;;;13.67;40.44;100740.64;2199173;79;21461;-74
2021/10/25 13:34:06;;;;;;;12.53;4.70;;;;;;;13.63;38.84;100736.66;2196501;79;21566;-73
2021/10/25 13:37:08;;;;;;;11.88;4.55;;;;;;;13.54;39.63;100735.83;2194780;79;21012;-73
2021/10/25 13:40:12;;;;;;;7.95;3.77;;;;;;;13.48;39.58;100726.36;2197974;79;20934;-73
2021/10/25 13:43:14;;;;;;;9.25;4.20;;;;;;;13.42;40.12;100730.03;2156249;81;21032;-74
2021/10/25 13:46:16;;;;;;;8.18;3.85;;;;;;;13.36;39.52;100739.22;2192533;79;21003;-77
2021/10/25 13:49:17;;;;;;;6.28;3.45;;;;;;;13.32;40.33;100737.88;2202050;79;21071;-73
2021/10/25 13:52:19;;;;;;;13.78;7.03;;;;;;;13.30;40.47;100728.73;2198891;79;21027;-74
2021/10/25 13:55:21;;;;;;;17.35;7.62;;;;;;;13.31;40.40;100726.90;2163697;80;21613;-74
2021/10/25 13:58:22;;;;;;;10.35;4.37;;;;;;;13.32;40.49;100719.22;2158513;80;20956;-77
2021/10/25 14:01:25;;;;;;;8.73;5.05;;;;;;;13.32;40.80;100715.23;2198778;79;21043;-74
2021/10/25 14:04:26;;;;;;;8.95;4.60;;;;;;;13.34;40.99;100714.56;2201676;79;21048;-83
2021/10/25 14:07:32;;;;;;;8.35;3.55;;;;;;;13.38;41.05;100710.57;2150697;81;21048;-73
2021/10/25 14:10:42;;;;;;;10.43;3.98;;;;;;;13.40;40.93;100715.20;2193149;80;21040;-75
2021/10/25 14:16:53;;;;;;;13.85;4.25;;;;;;;13.48;41.72;100721.86;2160673;80;21054;-72
2021/10/25 14:19:55;;;;;;;11.70;3.92;;;;;;;13.48;41.08;100720.52;2195568;79;20945;-76
2021/10/25 14:23:00;;;;;;;6.83;2.80;;;;;;;13.43;40.69;100713.06;2193597;79;21091;-76
2021/10/25 14:26:02;;;;;;;7.15;3.85;;;;;;;13.37;39.76;100715.55;2192672;79;21125;-77
2021/10/25 14:29:06;;;;;;;9.50;3.60;;;;;;;13.28;40.18;100717.41;2204574;79;21045;-72
2021/10/25 14:32:09;;;;;;;7.75;3.75;;;;;;;13.24;40.37;100718.73;2216633;79;21421;-73
2021/10/25 14:35:11;;;;;;;8.00;3.10;;;;;;;13.15;40.50;100718.39;2213272;78;21040;-73
2021/10/25 14:38:24;;;;;;;7.08;3.90;;;;;;;13.01;40.61;100712.77;2215527;79;21476;-74
2021/10/25 14:54:21;;;;;;;17.05;6.58;;;;;;;12.59;41.04;100688.16;2223086;79;21057;-72
2021/10/25 14:57:22;;;;;;;11.43;5.62;;;;;;;12.48;41.14;100693.30;2216987;78;21101;-72
2021/10/25 15:00:24;;;;;;;13.78;6.25;;;;;;;12.36;41.29;100691.46;2221030;79;21005;-73
2021/10/25 15:03:27;;;;;;;18.87;11.18;;;;;;;12.25;41.56;100689.12;2217349;78;21005;-73
2021/10/25 15:06:33;;;;;;;26.15;15.10;;;;;;;12.16;41.72;100698.88;2220805;79;21032;-74
2021/10/25 15:09:32;;;;;;;24.65;14.78;;;;;;;12.08;42.00;100692.23;2215760;78;21098;-73
2021/10/25 15:12:34;;;;;;;23.75;14.15;;;;;;;11.99;42.26;100684.70;2218310;78;21076;-72
2021/10/25 15:15:35;;;;;;;20.05;9.45;;;;;;;11.93;42.41;100685.86;2217472;79;21013;-73
2021/10/25 15:18:37;;;;;;;16.48;7.70;;;;;;;11.82;42.38;100680.30;2217140;78;22494;-72
2021/10/25 15:21:40;;;;;;;19.17;8.88;;;;;;;11.71;42.40;100684.59;2220700;79;21508;-73
2021/10/25 15:24:52;;;;;;;25.12;8.38;;;;;;;11.59;42.56;100681.39;2217441;78;21056;-72
2021/10/25 15:27:54;;;;;;;14.75;6.65;;;;;;;11.50;42.72;100668.56;2215837;79;20997;-72
2021/10/25 15:30:55;;;;;;;22.58;9.88;;;;;;;11.36;42.87;100671.31;2208336;79;21638;-72
2021/10/25 15:33:56;;;;;;;26.12;10.50;;;;;;;11.19;43.14;100673.05;2195931;79;21036;-73
2021/10/25 15:36:58;;;;;;;31.90;15.32;;;;;;;10.99;43.30;100673.76;2173466;81;21028;-73
2021/10/25 15:40:01;;;;;;;127.65;52.10;;;;;;;10.87;43.45;100684.77;2172107;81;21724;-72
2021/10/25 15:43:04;;;;;;;28.87;13.13;;;;;;;10.73;43.76;100685.69;2171221;81;21025;-72
2021/10/25 15:46:06;;;;;;;23.52;11.85;;;;;;;10.52;43.97;100677.21;2176652;81;21504;-73
2021/10/25 15:49:08;;;;;;;18.90;8.35;;;;;;;10.29;44.12;100676.34;2173771;81;21018;-72
2021/10/25 15:52:11;;;;;;;11.53;5.80;;;;;;;10.17;44.35;100678.85;2173316;81;21522;-72